NEOK1: Neosho R at Neosho Rapids, KS
Data processed at Thu 15Dec2022 05:55 GMT
All information presented herein is the property of the government of the United States of America and may be revised or deleted at any time without prior notice.
Dissemination of this information without the expressed written consent of the Public Affairs Office, Tulsa District U.S. Army Corps of Engineers is strictly prohibited.
These data are gathered electronically and, as presented, have not undergone any form of quality control. These data are not guaranteed to be valid or correct.
Go to home page.
Go to station list.
Upstream stations:
- EMPK1 : COTTONWOOD R AT EMPORIA
- CNRK1 : Cottonwood R nr Neosho Rapids, KS
- NBEK1 : Neosho R at Burlingame Rd nr Emporia KS
Previous Day
Next Day
Current Day
SHEF ID: NEOK1 NEOSHO R AT NEOSHO RAPIDS, KS
STATION TYPE:
STAGE RIV-FLOW BAT-LOAD
ft cfs volt
Ccp-Rev Ccp-Rev Ccp-Rev
(US/Central)
12/14 00:00 1.41 272 12.65
12/14 01:00 1.42 277 12.65
12/14 02:00 1.41 272 12.60
12/14 03:00 1.40 268 12.60
12/14 04:00 1.39 264 12.60
12/14 05:00 1.38 260 12.54
12/14 06:00 1.36 252 12.54
12/14 07:00 1.35 248 12.54
12/14 08:00 1.36 252 12.54
12/14 09:00 1.38 260 13.12
12/14 10:00 1.41 272 13.83
12/14 11:00 1.45 289 13.83
12/14 12:00 1.50 312 13.83
12/14 13:00 1.55 335 13.88
12/14 14:00 1.61 364 13.07
12/14 15:00 1.63 374 13.07
12/14 16:00 1.68 400 13.00
12/14 17:00 1.69 406 12.89
12/14 18:00 1.70 411 12.89
12/14 19:00 1.70 411 12.89
12/14 20:00 1.69 406 12.83
12/14 21:00 1.68 400 12.83
12/14 22:00 1.68 400 12.77
12/14 23:00 1.67 395 12.77